Right now: Transfers 2022 > 2023

Keegan Swirbul

Human Powered Health

Keegan Swirbul is a cyclist from USA (born September 2nd 1995), who currently rides for Human Powered Health (UCI ProTeam).

Information

2022 2021 2020 2019 2018 2017 2015 2014

Human Powered Health (ProTeam) UCI Ranking: 1917 (13pts) UCI: Race days: 36 UCI: Distance: 5.663km
Date Pos GC Race UCI
15.08 Volta a Portugal | 2.1 2022-08-15 Show more
15.08 33 Volta a Portugal | Overall 2022-08-15
25.07 DNF Villafranca de Ordizia | 1.1 2022-07-25Show more
19.06 Tour de Suisse | 2.UWT 2022-06-19 Show more
19.06 49 Tour de Suisse | Overall 2022-06-1910
26.06 10 USA RR | CN 2022-06-263Show more
10.06 DNF GP Kanton Aargau | 1.1 2022-06-10Show more
15.05 Tour de Hongrie | 2.1 2022-05-15 Show more
15.05 102 Tour de Hongrie | Overall 2022-05-15
15.04 Giro di Sicilia | 2.1 2022-04-15 Show more
15.04 68 Giro di Sicilia | Overall 2022-04-15
20.03 DNF Per Sempre Alfredo | 1.1 2022-03-20Show more
27.02 Gran Camiño | 2.1 2022-02-27 Show more
27.02 92 Gran Camiño | Overall 2022-02-27
15.08 54 Volta a Portugal | Points 2022-08-15
15.08 36 Volta a Portugal | Mountain 2022-08-15
15.08 87 33 Volta a Portugal | 10th stage 2022-08-15
14.08 12 33 Volta a Portugal | 9th stage 2022-08-14
13.08 81 45 Volta a Portugal | 8th stage 2022-08-13
12.08 30 38 Volta a Portugal | 7th stage 2022-08-12
11.08 96 42 Volta a Portugal | 6th stage 2022-08-11
10.08 38 35 Volta a Portugal | 5th stage 2022-08-10
08.08 61 39 Volta a Portugal | 4th stage 2022-08-08
07.08 41 41 Volta a Portugal | 3rd stage 2022-08-07
06.08 64 77 Volta a Portugal | 2nd stage 2022-08-06
05.08 64 84 Volta a Portugal | 1st stage 2022-08-05
04.08 97 97 Volta a Portugal | Prologue 2022-08-04
19.06 74 49 Tour de Suisse | 8th stage 2022-06-19
18.06 26 49 Tour de Suisse | 7th stage 2022-06-18
17.06 25 58 Tour de Suisse | 6th stage 2022-06-17
16.06 118 107 Tour de Suisse | 5th stage 2022-06-16
15.06 109 117 Tour de Suisse | 4th stage 2022-06-15
14.06 134 125 Tour de Suisse | 3rd stage 2022-06-14
13.06 78 112 Tour de Suisse | 2nd stage 2022-06-13
12.06 141 141 Tour de Suisse | 1st stage 2022-06-12
15.05 39 102 Tour de Hongrie | 5th stage 2022-05-15
14.05 87 120 Tour de Hongrie | 4th stage 2022-05-14
13.05 124 126 Tour de Hongrie | 3rd stage 2022-05-13
12.05 123 127 Tour de Hongrie | 2nd stage 2022-05-12
11.05 100 101 Tour de Hongrie | 1st stage 2022-05-11
15.04 58 68 Giro di Sicilia | 4th stage 2022-04-15
14.04 114 94 Giro di Sicilia | 3rd stage 2022-04-14
13.04 65 87 Giro di Sicilia | 2nd stage 2022-04-13
12.04 117 117 Giro di Sicilia | 1st stage 2022-04-12
27.02 87 92 Gran Camiño | 4th stage 2022-02-27
26.02 93 90 Gran Camiño | 3rd stage 2022-02-26
25.02 86 88 Gran Camiño | 2nd stage 2022-02-25
24.02 108 108 Gran Camiño | 1st stage 2022-02-24